createdAt,value
2022-12-16T00:02:13.338Z,99.83
2022-12-16T00:07:36.059Z,84.37
2022-12-16T00:10:08.939Z,129.40
2022-12-16T00:12:35.983Z,117.27
2022-12-16T00:15:05.340Z,119.23
2022-12-16T00:17:35.888Z,130.13
2022-12-16T00:20:05.773Z,109.67
2022-12-16T00:22:42.009Z,126.97
2022-12-16T00:25:12.447Z,126.40
2022-12-16T00:27:41.683Z,123.67
2022-12-16T00:30:10.850Z,120.73
2022-12-16T00:32:39.491Z,110.80
2022-12-16T00:35:08.965Z,112.67
2022-12-16T00:37:48.280Z,117.43
2022-12-16T00:40:18.582Z,101.63
2022-12-16T00:42:50.482Z,108.47
2022-12-16T00:45:21.982Z,111.23
2022-12-16T00:47:51.304Z,113.60
2022-12-16T00:50:20.508Z,111.20
2022-12-16T00:52:56.979Z,80.30
2022-12-16T00:55:34.495Z,94.53
2022-12-16T00:58:04.546Z,97.50
2022-12-16T01:00:37.423Z,102.00
2022-12-16T01:03:09.434Z,100.37
2022-12-16T01:06:39.554Z,102.20
2022-12-16T01:09:10.115Z,99.63
2022-12-16T01:11:38.829Z,99.97
2022-12-16T01:14:11.554Z,95.23
2022-12-16T01:16:47.226Z,95.00
2022-12-16T01:19:17.675Z,94.97
2022-12-16T01:21:46.174Z,93.67
2022-12-16T01:24:16.975Z,102.43
2022-12-16T01:26:45.838Z,95.43
2022-12-16T01:29:16.258Z,90.43
2022-12-16T01:31:44.772Z,90.77
2022-12-16T01:34:13.249Z,97.13
2022-12-16T01:36:46.769Z,87.60
2022-12-16T01:39:15.303Z,85.27
2022-12-16T01:41:44.173Z,87.87
2022-12-16T01:44:23.519Z,81.07
2022-12-16T01:46:57.979Z,87.33
2022-12-16T01:50:09.520Z,81.57
2022-12-16T01:52:43.536Z,79.03
2022-12-16T01:55:23.677Z,81.27
2022-12-16T01:58:16.365Z,76.93
2022-12-16T02:00:46.759Z,77.67
2022-12-16T02:03:23.229Z,71.93
2022-12-16T02:05:53.864Z,72.10
2022-12-16T02:08:25.785Z,73.30
2022-12-16T02:11:29.075Z,77.80
2022-12-16T02:14:17.910Z,75.20
2022-12-16T02:16:48.198Z,73.07
2022-12-16T02:19:44.899Z,69.63
2022-12-16T02:22:32.891Z,72.50
2022-12-16T02:25:18.749Z,80.00
2022-12-16T02:28:34.835Z,78.37
2022-12-16T02:31:27.113Z,74.07
2022-12-16T02:33:59.450Z,72.07
2022-12-16T02:36:44.744Z,72.33
2022-12-16T02:39:22.504Z,68.60
2022-12-16T02:42:13.765Z,74.87
2022-12-16T02:45:03.382Z,78.60
2022-12-16T02:47:31.380Z,79.53
2022-12-16T02:49:59.460Z,77.17
2022-12-16T02:52:32.909Z,77.37
2022-12-16T02:55:04.604Z,74.90
2022-12-16T08:05:10.886Z,125.17
2022-12-16T08:08:01.407Z,120.10
2022-12-16T08:10:46.898Z,131.17
2022-12-16T08:13:32.477Z,126.50
2022-12-16T08:16:18.310Z,130.47
2022-12-16T08:19:10.481Z,130.00
2022-12-16T08:21:57.058Z,126.50
2022-12-16T08:24:43.823Z,126.53
2022-12-16T08:27:32.259Z,126.43
2022-12-16T08:30:17.847Z,122.27
2022-12-16T08:33:12.082Z,173.30
2022-12-16T08:36:03.983Z,118.73
2022-12-16T08:38:49.499Z,128.57
2022-12-16T08:41:34.957Z,144.33
2022-12-16T08:44:20.394Z,142.57
2022-12-16T08:47:05.774Z,132.13
2022-12-16T08:49:52.589Z,131.83
2022-12-16T08:52:40.658Z,139.63
2022-12-16T08:55:29.452Z,151.17
2022-12-16T08:58:15.484Z,143.27
2022-12-16T09:01:06.721Z,130.17
2022-12-16T09:03:54.035Z,136.80
2022-12-16T09:06:40.922Z,137.07
2022-12-16T09:09:27.667Z,123.93
2022-12-16T09:12:13.788Z,113.67
2022-12-16T09:14:59.198Z,118.03
2022-12-16T09:17:44.618Z,108.77
2022-12-16T09:20:30.229Z,111.30
2022-12-16T09:23:15.690Z,117.57
2022-12-16T09:26:01.270Z,110.97
2022-12-16T09:28:46.789Z,114.70
2022-12-16T09:31:32.279Z,106.03
2022-12-16T09:34:18.173Z,106.27
2022-12-16T09:37:03.656Z,95.93
2022-12-16T09:39:49.050Z,92.33
2022-12-16T09:43:06.818Z,78.40
2022-12-16T09:46:00.425Z,102.50
2022-12-16T09:48:48.909Z,91.77
2022-12-16T09:51:35.919Z,95.40
2022-12-16T09:54:22.847Z,105.23
2022-12-16T09:57:08.726Z,98.87
2022-12-16T09:59:59.121Z,90.57
2022-12-16T10:02:45.441Z,94.23
2022-12-16T10:08:59.084Z,84.03
2022-12-16T10:12:20.428Z,88.73
2022-12-16T10:15:15.559Z,89.90
2022-12-16T10:18:05.256Z,81.17
2022-12-16T10:20:59.178Z,95.43
2022-12-16T10:24:04.846Z,79.27
2022-12-16T10:27:13.435Z,65.80
2022-12-16T10:30:04.103Z,63.37
2022-12-16T10:33:09.687Z,64.63
2022-12-16T10:36:08.264Z,72.07
2022-12-16T10:39:17.123Z,73.10
2022-12-16T10:42:06.896Z,65.40
2022-12-16T10:45:13.438Z,75.55
2022-12-16T10:47:59.103Z,83.80
2022-12-16T10:50:44.372Z,72.50
2022-12-16T10:53:37.300Z,74.40
2022-12-16T10:56:39.395Z,76.50
2022-12-16T10:59:27.404Z,72.20
2022-12-16T11:02:34.593Z,82.83
2022-12-16T11:08:23.704Z,77.60
2022-12-16T11:11:09.239Z,80.27
2022-12-16T11:13:55.603Z,74.37
2022-12-16T11:16:46.973Z,78.80
2022-12-16T11:19:40.325Z,80.87
2022-12-16T11:22:33.235Z,91.67
2022-12-16T11:25:32.089Z,79.20
2022-12-16T11:28:30.999Z,106.00
2022-12-16T11:31:21.091Z,118.17
2022-12-16T11:34:08.208Z,103.27
2022-12-16T11:36:58.444Z,100.77
2022-12-16T11:39:47.753Z,101.43
2022-12-16T11:42:42.854Z,100.23
2022-12-16T11:45:39.918Z,122.50
2022-12-16T11:48:40.297Z,122.73
2022-12-16T11:51:32.500Z,115.07
2022-12-16T11:54:28.558Z,105.23
2022-12-16T11:57:16.712Z,77.70
2022-12-16T12:00:21.489Z,91.13
2022-12-16T12:03:28.691Z,99.73
2022-12-16T12:06:27.175Z,107.33
2022-12-16T12:09:32.039Z,91.33
2022-12-16T12:12:32.248Z,107.30
2022-12-16T12:15:48.962Z,118.83
2022-12-16T12:18:57.808Z,114.20
2022-12-16T12:21:45.911Z,114.47
2022-12-16T12:24:43.418Z,107.77
2022-12-16T12:27:35.128Z,99.80
2022-12-16T12:30:33.454Z,100.33
2022-12-16T12:33:24.977Z,100.83
2022-12-16T12:36:22.936Z,91.20
2022-12-16T12:39:25.695Z,96.40
2022-12-16T12:42:14.122Z,92.03
2022-12-16T12:45:34.628Z,89.83
2022-12-16T12:48:37.458Z,94.27
2022-12-16T12:51:31.860Z,95.57
2022-12-16T12:54:55.919Z,94.07
2022-12-16T12:57:45.438Z,78.20
2022-12-16T13:00:40.505Z,79.53
2022-12-16T13:03:56.541Z,86.90
2022-12-16T13:06:43.283Z,85.47
2022-12-16T13:09:51.194Z,91.00
2022-12-16T13:12:53.217Z,86.87
2022-12-16T13:16:00.213Z,80.27
2022-12-16T13:18:47.219Z,82.93
2022-12-16T13:21:57.789Z,77.47
2022-12-16T13:25:04.833Z,86.77
2022-12-16T13:28:07.336Z,85.83
2022-12-16T13:31:14.083Z,79.57
2022-12-16T13:34:08.909Z,83.67
2022-12-16T13:36:55.140Z,75.47
2022-12-16T13:39:44.936Z,76.70
2022-12-16T13:42:58.818Z,73.47
2022-12-16T13:45:53.217Z,76.67
2022-12-16T13:48:53.913Z,75.23
2022-12-16T13:51:57.814Z,74.73
2022-12-16T13:55:03.594Z,84.33
2022-12-16T13:57:54.099Z,76.03
2022-12-16T14:00:42.742Z,75.90
2022-12-16T14:03:37.007Z,82.30
2022-12-16T14:06:27.884Z,84.03
2022-12-16T14:09:13.743Z,75.67
2022-12-16T14:12:11.552Z,74.67
2022-12-16T14:15:10.175Z,69.30
2022-12-16T14:18:16.998Z,72.07
2022-12-16T14:21:17.233Z,75.43
2022-12-16T14:24:17.735Z,72.67
2022-12-16T14:27:04.333Z,78.47
2022-12-16T14:29:51.481Z,75.47
2022-12-16T14:32:49.619Z,76.17
2022-12-16T14:35:41.658Z,72.27
2022-12-16T14:38:41.527Z,73.13
2022-12-16T14:41:38.369Z,80.50
2022-12-16T14:44:44.593Z,62.10
2022-12-16T14:47:39.779Z,53.80
2022-12-16T14:50:46.413Z,46.20
2022-12-16T14:53:38.513Z,46.23
2022-12-16T14:57:05.456Z,56.13
2022-12-16T14:59:53.437Z,54.50
2022-12-16T15:02:51.321Z,54.97
2022-12-16T15:05:45.177Z,56.40
2022-12-16T15:08:36.088Z,70.23
2022-12-16T15:11:33.143Z,69.43
2022-12-16T15:14:24.148Z,44.53
2022-12-16T15:17:14.197Z,73.77
2022-12-16T15:20:12.287Z,74.23
2022-12-16T15:23:18.577Z,68.57
2022-12-16T15:26:20.383Z,63.13
2022-12-16T15:29:11.649Z,84.40
2022-12-16T15:32:03.700Z,83.20
2022-12-16T15:35:10.115Z,86.90
2022-12-16T15:38:04.445Z,78.03
2022-12-16T15:40:56.069Z,84.67
2022-12-16T15:43:57.605Z,69.87
2022-12-16T15:46:50.941Z,71.23
2022-12-16T15:49:51.683Z,81.13
2022-12-16T15:52:55.834Z,82.60
2022-12-16T15:56:18.255Z,82.60
2022-12-16T15:59:07.177Z,76.33
2022-12-16T16:02:16.472Z,84.20
2022-12-16T16:05:04.415Z,85.27
2022-12-16T16:07:52.482Z,83.77
2022-12-16T16:11:00.738Z,78.43
2022-12-16T16:13:48.257Z,86.87
2022-12-16T16:16:51.220Z,80.80
2022-12-16T16:19:46.381Z,89.30
2022-12-16T16:22:40.429Z,84.20
2022-12-16T16:25:33.458Z,78.50
2022-12-16T16:28:23.178Z,66.77
2022-12-16T16:31:12.443Z,70.97
2022-12-16T16:34:03.419Z,68.00
2022-12-16T16:36:53.778Z,67.77
2022-12-16T16:39:44.412Z,64.60
2022-12-16T16:42:33.771Z,65.97
2022-12-16T16:45:30.835Z,61.37
2022-12-16T16:48:37.992Z,54.40
2022-12-16T16:51:26.082Z,62.57
2022-12-16T16:54:19.633Z,52.63
2022-12-16T16:57:06.400Z,51.77
2022-12-16T16:59:55.772Z,49.83
2022-12-16T17:02:49.043Z,49.40
2022-12-16T17:06:00.069Z,51.87
2022-12-16T17:08:49.198Z,54.20
2022-12-16T17:11:40.137Z,52.80
2022-12-16T17:14:43.032Z,48.67
2022-12-16T17:17:30.852Z,48.87
2022-12-16T17:20:24.133Z,47.60
2022-12-16T17:23:10.435Z,46.87
2022-12-16T17:25:57.521Z,43.97
2022-12-16T17:28:48.809Z,40.83
2022-12-16T17:31:39.965Z,37.53
2022-12-16T17:34:27.563Z,33.97
2022-12-16T17:37:18.569Z,34.43
2022-12-16T17:40:05.758Z,37.10
2022-12-16T17:42:51.726Z,37.07
2022-12-16T17:45:40.653Z,40.53
2022-12-16T17:48:28.983Z,41.53
2022-12-16T17:51:17.189Z,40.00
2022-12-16T17:54:16.030Z,42.07
2022-12-16T17:57:09.592Z,43.27
2022-12-16T17:59:57.418Z,40.37
2022-12-16T18:02:44.720Z,41.73
2022-12-16T18:05:42.476Z,45.13
2022-12-16T18:08:32.659Z,45.00
2022-12-16T18:11:20.833Z,41.80
2022-12-16T18:14:08.660Z,42.00
2022-12-16T18:16:59.664Z,48.57
2022-12-16T18:19:48.691Z,46.27
2022-12-16T18:22:38.975Z,48.83
2022-12-16T18:25:27.974Z,40.97
2022-12-16T18:28:18.512Z,60.50
2022-12-16T18:31:05.760Z,73.80
2022-12-16T18:33:52.938Z,73.53
2022-12-16T18:36:39.693Z,76.77
2022-12-16T18:39:29.147Z,66.40
2022-12-16T18:42:20.518Z,85.20
2022-12-16T18:45:14.299Z,64.73
2022-12-16T18:48:01.849Z,82.20
2022-12-16T18:50:50.209Z,89.47
2022-12-16T18:53:38.010Z,75.80
2022-12-16T18:56:29.613Z,70.43
2022-12-16T18:59:23.058Z,61.23
2022-12-16T19:02:12.467Z,62.67
2022-12-16T19:05:03.096Z,63.43
2022-12-16T19:07:55.718Z,59.20
2022-12-16T19:10:45.107Z,65.60
2022-12-16T19:13:34.028Z,62.03
2022-12-16T19:16:24.387Z,66.67
2022-12-16T19:22:24.743Z,58.43
2022-12-16T19:25:13.260Z,37.17
2022-12-16T19:28:06.148Z,31.60
2022-12-16T19:30:54.888Z,36.67
2022-12-16T19:33:43.464Z,38.20
2022-12-16T19:36:30.910Z,58.30
2022-12-16T19:39:18.945Z,61.53
2022-12-16T19:42:07.009Z,76.53
2022-12-16T19:45:02.032Z,57.87
2022-12-16T19:47:50.341Z,55.83
2022-12-16T19:50:39.891Z,63.03
2022-12-16T19:53:31.358Z,65.73
2022-12-16T19:56:20.193Z,65.07
2022-12-16T19:59:11.371Z,68.17
2022-12-16T20:01:59.196Z,77.60
2022-12-16T20:04:47.174Z,109.57
2022-12-16T20:07:36.468Z,79.77
2022-12-16T20:10:25.962Z,65.70
2022-12-16T20:13:24.881Z,74.17
2022-12-16T20:16:24.972Z,96.13
2022-12-16T20:19:13.974Z,120.90
2022-12-16T20:22:06.883Z,88.57
2022-12-16T20:24:56.291Z,105.20
2022-12-16T20:27:46.377Z,114.40
2022-12-16T20:30:35.653Z,96.53
2022-12-16T20:33:26.403Z,95.30
2022-12-16T20:36:30.958Z,109.00
2022-12-16T20:39:20.535Z,100.03
2022-12-16T20:42:10.576Z,91.63
2022-12-16T20:45:01.974Z,100.20
2022-12-16T20:47:50.568Z,102.53
2022-12-16T20:50:39.363Z,96.73
2022-12-16T20:53:27.063Z,82.43
2022-12-16T20:56:16.608Z,82.13
2022-12-16T20:59:07.548Z,75.50
2022-12-16T21:08:09.538Z,63.57
2022-12-16T21:11:02.471Z,80.63
2022-12-16T21:13:50.510Z,72.37
2022-12-16T21:16:39.538Z,68.83
2022-12-16T21:19:33.269Z,73.57
2022-12-16T21:22:22.178Z,70.83
2022-12-16T21:25:10.568Z,76.70
2022-12-16T21:27:58.888Z,70.10
2022-12-16T21:30:49.748Z,71.67
2022-12-16T21:33:43.118Z,68.53
2022-12-16T21:36:42.369Z,66.10
2022-12-16T21:39:31.398Z,65.60
2022-12-16T21:42:21.139Z,100.77
2022-12-16T21:45:28.522Z,75.80
2022-12-16T21:48:15.255Z,93.93
2022-12-16T21:51:04.824Z,71.50
2022-12-16T21:53:53.568Z,74.03
2022-12-16T21:56:44.379Z,70.60
2022-12-16T21:59:31.392Z,72.63
2022-12-16T22:02:19.832Z,76.23
2022-12-16T22:08:14.615Z,75.03
2022-12-16T22:11:04.437Z,67.77
2022-12-16T22:13:51.378Z,64.03
2022-12-16T22:16:43.316Z,68.27
2022-12-16T22:19:30.357Z,65.67
2022-12-16T22:22:17.323Z,65.87
2022-12-16T22:25:07.191Z,62.73
2022-12-16T22:28:01.620Z,65.33
2022-12-16T22:30:52.584Z,63.30
2022-12-16T22:33:48.217Z,65.97
2022-12-16T22:36:21.645Z,78.97
2022-12-16T22:36:38.358Z,59.23
2022-12-16T22:39:28.781Z,66.67
2022-12-16T22:42:15.633Z,59.63
2022-12-16T22:45:02.673Z,64.90
2022-12-16T22:47:51.732Z,63.27
2022-12-16T22:50:40.818Z,65.73
2022-12-16T22:53:31.100Z,63.20
2022-12-16T22:56:16.535Z,66.40
2022-12-16T22:59:04.573Z,67.37
2022-12-16T23:01:54.817Z,59.80
2022-12-16T23:04:50.277Z,64.23
2022-12-16T23:07:38.745Z,105.40
2022-12-16T23:10:27.337Z,58.93
2022-12-16T23:13:18.868Z,58.03
2022-12-16T23:16:05.664Z,57.17
2022-12-16T23:18:56.616Z,50.43
2022-12-16T23:21:46.108Z,42.10
2022-12-16T23:24:34.605Z,42.90
2022-12-16T23:27:23.897Z,49.93
2022-12-16T23:30:10.863Z,44.20
2022-12-16T23:32:29.601Z,61.10
2022-12-16T23:32:58.535Z,49.17
2022-12-16T23:35:46.050Z,56.07
2022-12-16T23:38:37.507Z,52.70
2022-12-16T23:41:27.118Z,66.70
2022-12-16T23:44:27.408Z,59.47
2022-12-16T23:47:14.693Z,54.57
2022-12-16T23:50:02.535Z,50.07
2022-12-16T23:52:49.679Z,62.37
2022-12-16T23:55:40.894Z,61.17
2022-12-16T23:58:31.919Z,33.33
